Time;durP1;ratioP1;P1;durP2;ratioP2;P2;SDS_P1;SDS_P2;PMS_P1;PMS_P2;Temp;Humidity;BMP_temperature;BMP_pressure;BME280_temperature;BME280_humidity;BME280_pressure;Samples;Min_cycle;Max_cycle;Signal;HPM_P1;HPM_P2
2021/03/21 00:00:52;;;;;;;8.35;4.20;;;-1.30;99.90;;;;;;5046659;28;20089;-74
2021/03/21 00:03:18;;;;;;;5.35;3.97;;;-1.20;99.90;;;;;;5053573;28;20117;-76
2021/03/21 00:05:44;;;;;;;5.20;3.42;;;-1.10;99.90;;;;;;5046736;28;20089;-76
2021/03/21 00:08:15;;;;;;;6.47;3.97;;;-1.20;99.90;;;;;;5034876;28;20100;-76
2021/03/21 00:10:41;;;;;;;5.97;4.28;;;-1.20;99.90;;;;;;5029364;28;20074;-76
2021/03/21 00:13:07;;;;;;;5.43;3.67;;;-1.10;99.90;;;;;;5038154;28;20429;-75
2021/03/21 00:15:32;;;;;;;6.50;3.55;;;-1.10;99.90;;;;;;5045020;28;20568;-76
2021/03/21 00:17:59;;;;;;;5.15;4.35;;;-1.00;99.90;;;;;;5047615;28;20490;-76
2021/03/21 00:20:30;;;;;;;8.25;3.42;;;-1.10;99.90;;;;;;5057785;28;20088;-76
2021/03/21 00:22:55;;;;;;;5.57;3.85;;;-1.00;99.90;;;;;;5046482;28;20124;-75
2021/03/21 00:25:23;;;;;;;7.15;3.88;;;-1.00;99.90;;;;;;5049107;28;20652;-76
2021/03/21 00:27:48;;;;;;;4.03;3.20;;;-0.90;99.90;;;;;;5037029;28;20089;-76
2021/03/21 00:30:18;;;;;;;6.25;3.58;;;-1.00;99.90;;;;;;5038272;28;20495;-76
2021/03/21 00:32:44;;;;;;;4.95;4.05;;;-1.00;99.90;;;;;;5030887;28;20112;-75
2021/03/21 00:35:10;;;;;;;4.75;3.67;;;-0.90;99.90;;;;;;5043343;28;20085;-76
2021/03/21 00:37:38;;;;;;;6.47;3.78;;;-1.10;99.90;;;;;;5044849;28;20571;-76
2021/03/21 00:40:06;;;;;;;7.78;4.68;;;-1.10;99.90;;;;;;5056159;28;20070;-76
2021/03/21 00:42:32;;;;;;;6.22;3.92;;;-1.10;99.90;;;;;;5046343;28;20156;-76
2021/03/21 00:44:57;;;;;;;4.47;3.20;;;-1.10;99.90;;;;;;5043301;28;20157;-75
2021/03/21 00:47:23;;;;;;;8.13;3.95;;;-0.90;99.90;;;;;;5043352;28;20085;-76
2021/03/21 00:49:48;;;;;;;4.85;3.25;;;-1.10;99.90;;;;;;5046138;28;20086;-76
2021/03/21 00:52:14;;;;;;;4.80;3.38;;;-1.00;99.90;;;;;;5040261;28;20434;-77
2021/03/21 00:54:39;;;;;;;4.85;3.40;;;-1.00;99.90;;;;;;5056699;28;20096;-75
2021/03/21 00:57:06;;;;;;;6.50;3.20;;;-1.10;99.90;;;;;;5046388;28;20461;-75
2021/03/21 00:59:32;;;;;;;6.55;3.65;;;-1.00;99.90;;;;;;5037203;28;20574;-76
2021/03/21 01:01:57;;;;;;;5.18;3.58;;;-0.90;99.90;;;;;;5032610;28;20177;-75
2021/03/21 01:04:23;;;;;;;6.05;4.00;;;-0.90;99.90;;;;;;5037275;28;20131;-76
2021/03/21 01:06:48;;;;;;;4.50;3.50;;;-0.90;99.90;;;;;;5048892;28;20101;-76
2021/03/21 01:09:15;;;;;;;6.65;3.85;;;-0.90;99.90;;;;;;5064428;28;20413;-76
2021/03/21 01:11:40;;;;;;;6.80;3.78;;;-1.00;99.90;;;;;;5038988;28;20077;-77
2021/03/21 01:14:07;;;;;;;6.22;4.05;;;-1.00;99.90;;;;;;5061839;28;20079;-78
2021/03/21 01:16:38;;;;;;;4.57;3.30;;;-0.90;99.90;;;;;;5041926;28;20089;-75
2021/03/21 01:19:07;;;;;;;4.68;3.75;;;-1.00;99.90;;;;;;5048138;28;20074;-75
2021/03/21 01:21:34;;;;;;;7.85;4.50;;;-1.00;99.90;;;;;;5047069;28;20445;-76
2021/03/21 01:24:00;;;;;;;4.82;3.30;;;-1.00;99.90;;;;;;5044228;28;20078;-75
2021/03/21 01:26:27;;;;;;;4.88;3.40;;;-1.00;99.90;;;;;;5039678;28;20108;-76
2021/03/21 01:28:56;;;;;;;5.65;3.60;;;-1.10;99.90;;;;;;5044423;28;20085;-77
2021/03/21 01:31:23;;;;;;;6.97;4.20;;;-1.10;99.90;;;;;;5045905;28;20100;-76
2021/03/21 01:33:49;;;;;;;4.67;3.70;;;-1.00;99.90;;;;;;5045604;28;20123;-76
2021/03/21 01:36:19;;;;;;;6.38;3.47;;;-1.10;99.90;;;;;;5040858;28;20358;-76
2021/03/21 01:38:45;;;;;;;5.85;3.55;;;-1.10;99.90;;;;;;5036788;28;20074;-76
2021/03/21 01:41:18;;;;;;;5.65;3.58;;;-1.00;99.90;;;;;;5031940;28;20154;-77
2021/03/21 01:43:44;;;;;;;5.82;4.03;;;-1.00;99.90;;;;;;5041793;28;20069;-77
2021/03/21 01:46:34;;;;;;;4.93;3.53;;;-1.10;99.90;;;;;;5040599;28;20113;-77
2021/03/21 01:49:08;;;;;;;4.63;3.08;;;-1.10;99.90;;;;;;5035752;28;20170;-76
2021/03/21 01:51:37;;;;;;;5.03;3.75;;;-1.10;99.90;;;;;;5034437;28;20148;-76
2021/03/21 01:54:06;;;;;;;5.82;3.33;;;-1.10;99.90;;;;;;5033038;28;20130;-76
2021/03/21 01:56:33;;;;;;;6.38;3.80;;;-1.10;99.90;;;;;;5032184;28;20105;-76
2021/03/21 01:59:11;;;;;;;6.57;3.85;;;-1.20;99.90;;;;;;5029818;28;20085;-76
2021/03/21 02:01:36;;;;;;;5.85;3.22;;;-1.10;99.90;;;;;;5047678;28;20077;-75
2021/03/21 02:04:03;;;;;;;5.05;3.45;;;-1.00;99.90;;;;;;5045225;28;20077;-77
2021/03/21 02:06:37;;;;;;;5.85;3.58;;;-0.90;99.90;;;;;;5045939;28;20101;-75
2021/03/21 02:09:30;;;;;;;5.43;3.78;;;-0.90;99.90;;;;;;5036841;28;20077;-77
2021/03/21 02:12:11;;;;;;;6.30;4.07;;;-1.00;99.90;;;;;;5003846;28;20093;-76
2021/03/21 02:14:50;;;;;;;5.70;3.40;;;-1.00;99.90;;;;;;5052562;28;20077;-75
2021/03/21 02:17:18;;;;;;;6.05;3.60;;;-1.10;99.90;;;;;;5048432;28;20100;-76
2021/03/21 02:19:53;;;;;;;5.80;3.58;;;-1.10;99.90;;;;;;5040892;28;20577;-76
2021/03/21 02:22:32;;;;;;;5.47;4.40;;;-1.10;99.90;;;;;;5051877;28;20080;-76
2021/03/21 02:25:10;;;;;;;4.47;3.20;;;-1.10;99.90;;;;;;5062754;28;20191;-76
2021/03/21 02:27:38;;;;;;;6.03;4.00;;;-1.00;99.90;;;;;;5035349;28;20123;-75
2021/03/21 02:30:13;;;;;;;7.43;3.28;;;-1.00;99.90;;;;;;5031905;28;20073;-75
2021/03/21 02:32:58;;;;;;;4.75;3.08;;;-1.20;99.90;;;;;;5033735;28;20077;-76
2021/03/21 02:35:33;;;;;;;4.97;3.70;;;-1.10;99.90;;;;;;5042401;28;20073;-76
2021/03/21 02:38:40;;;;;;;7.07;3.65;;;-1.00;99.90;;;;;;5046194;28;20671;-75
2021/03/21 02:41:12;;;;;;;6.93;3.67;;;-1.00;99.90;;;;;;5041930;28;20160;-76
2021/03/21 02:43:46;;;;;;;5.10;3.67;;;-1.00;99.90;;;;;;5041684;28;20116;-75
2021/03/21 02:46:21;;;;;;;4.65;3.10;;;-1.10;99.90;;;;;;5035118;28;20101;-77
2021/03/21 02:49:29;;;;;;;6.78;3.25;;;-1.00;99.90;;;;;;5045949;28;20089;-77
2021/03/21 02:52:00;;;;;;;5.35;3.17;;;-1.00;99.90;;;;;;4970599;28;20158;-76
2021/03/21 02:54:31;;;;;;;5.63;3.70;;;-1.00;99.90;;;;;;5037124;28;20087;-76
2021/03/21 02:57:04;;;;;;;4.75;2.92;;;-1.20;99.90;;;;;;5032587;28;20101;-77
2021/03/21 02:59:35;;;;;;;3.60;3.22;;;-1.30;99.90;;;;;;5038006;28;20084;-77
2021/03/21 03:02:08;;;;;;;5.47;3.55;;;-1.10;99.90;;;;;;5043552;28;20078;-76
2021/03/21 03:04:40;;;;;;;5.70;3.60;;;-1.30;99.90;;;;;;5064067;28;20135;-76
2021/03/21 03:07:20;;;;;;;7.40;3.72;;;-1.20;99.90;;;;;;5042571;28;20184;-77
2021/03/21 03:09:51;;;;;;;6.10;3.78;;;-1.10;99.90;;;;;;5043870;28;20088;-77
2021/03/21 03:12:36;;;;;;;5.55;3.38;;;-1.10;99.90;;;;;;5048361;28;20073;-75
2021/03/21 03:15:07;;;;;;;5.57;3.17;;;-1.10;99.90;;;;;;5034864;28;20592;-76
2021/03/21 03:17:43;;;;;;;5.20;2.97;;;-1.10;99.90;;;;;;5040268;28;20619;-75
2021/03/21 03:20:17;;;;;;;4.55;2.90;;;-0.90;99.90;;;;;;5048316;28;20077;-75
2021/03/21 03:22:52;;;;;;;4.47;3.17;;;-0.90;99.90;;;;;;5045968;28;20532;-77
2021/03/21 03:25:36;;;;;;;5.05;2.60;;;-0.90;99.90;;;;;;5034157;28;20091;-76
2021/03/21 03:28:02;;;;;;;6.80;3.80;;;-1.10;99.90;;;;;;5030916;28;20147;-76
2021/03/21 03:30:35;;;;;;;4.83;3.73;;;-1.10;99.90;;;;;;5037105;28;20082;-76
2021/03/21 03:33:03;;;;;;;4.72;3.17;;;-1.10;99.90;;;;;;5046602;28;20161;-76
2021/03/21 03:35:28;;;;;;;6.00;3.47;;;-1.00;99.90;;;;;;5049318;28;20097;-77
2021/03/21 03:37:54;;;;;;;4.85;3.22;;;-1.00;99.90;;;;;;5044889;28;20950;-76
2021/03/21 03:40:20;;;;;;;5.22;3.20;;;-1.10;99.90;;;;;;5044681;28;20144;-76
2021/03/21 03:43:14;;;;;;;4.50;3.03;;;-1.30;99.90;;;;;;5059648;28;20173;-77
2021/03/21 03:46:10;;;;;;;5.13;3.63;;;-1.20;99.90;;;;;;5048579;28;20105;-76
2021/03/21 03:49:00;;;;;;;4.90;3.03;;;-1.20;99.90;;;;;;5044129;28;20234;-76
2021/03/21 03:51:44;;;;;;;4.75;3.28;;;-1.10;99.90;;;;;;5053267;28;20097;-76
2021/03/21 03:54:31;;;;;;;3.63;2.53;;;-1.00;99.90;;;;;;5050588;28;20487;-77
2021/03/21 03:57:00;;;;;;;4.60;2.92;;;-1.20;99.90;;;;;;5033560;28;20184;-76
2021/03/21 03:59:48;;;;;;;6.38;3.58;;;-1.10;99.90;;;;;;5038961;28;20176;-76
2021/03/21 04:02:19;;;;;;;5.00;3.30;;;-1.10;99.90;;;;;;5047541;28;20081;-76
2021/03/21 04:05:03;;;;;;;5.35;3.08;;;-1.20;99.90;;;;;;5062542;28;20101;-77
2021/03/21 04:07:56;;;;;;;6.35;3.13;;;-1.10;99.90;;;;;;5057242;28;20501;-76
2021/03/21 04:10:29;;;;;;;4.78;3.03;;;-1.10;99.90;;;;;;5040492;28;20084;-77
2021/03/21 04:13:01;;;;;;;3.88;3.10;;;-1.20;99.90;;;;;;5035293;28;20632;-76
2021/03/21 04:15:32;;;;;;;4.88;3.05;;;-1.20;99.90;;;;;;5037617;28;20678;-76
2021/03/21 04:18:21;;;;;;;4.37;3.20;;;-1.20;99.90;;;;;;5047265;28;20561;-77
2021/03/21 04:21:02;;;;;;;5.55;3.13;;;-1.10;99.90;;;;;;5044530;28;20568;-76
2021/03/21 04:23:40;;;;;;;4.50;2.85;;;-0.90;99.90;;;;;;5061716;28;20483;-76
2021/03/21 04:26:13;;;;;;;4.15;3.08;;;-0.90;99.90;;;;;;5036704;28;20116;-75
2021/03/21 04:28:44;;;;;;;6.55;3.88;;;-1.00;99.90;;;;;;5045560;28;20092;-76
2021/03/21 04:31:13;;;;;;;6.60;3.63;;;-1.00;99.90;;;;;;5037363;28;20078;-76
2021/03/21 04:33:44;;;;;;;5.03;3.60;;;-1.00;99.90;;;;;;5046454;28;20077;-76
2021/03/21 04:36:15;;;;;;;6.00;2.95;;;-0.90;99.90;;;;;;5046449;28;20463;-74
2021/03/21 04:38:53;;;;;;;5.28;2.85;;;-1.00;99.90;;;;;;5042627;28;20078;-77
2021/03/21 04:41:25;;;;;;;5.97;3.58;;;-1.20;99.90;;;;;;5033390;28;20084;-77
2021/03/21 04:44:02;;;;;;;4.45;3.10;;;-1.20;99.90;;;;;;5045883;28;20078;-77
2021/03/21 04:46:36;;;;;;;4.05;2.58;;;-1.00;99.90;;;;;;5040184;28;20093;-76
2021/03/21 04:49:01;;;;;;;3.83;2.80;;;-1.00;99.90;;;;;;5044486;28;20078;-75
2021/03/21 04:51:31;;;;;;;5.32;3.17;;;-0.90;99.90;;;;;;5041964;28;20536;-75
2021/03/21 04:54:18;;;;;;;6.07;2.97;;;-1.10;99.90;;;;;;5033811;28;20160;-76
2021/03/21 04:56:58;;;;;;;6.90;4.10;;;-1.00;99.90;;;;;;5039345;28;20097;-76
2021/03/21 04:59:32;;;;;;;4.13;2.45;;;-1.00;99.90;;;;;;5055040;28;20104;-76
2021/03/21 05:02:10;;;;;;;5.47;3.22;;;-1.00;99.90;;;;;;5040764;28;20078;-76
2021/03/21 05:04:47;;;;;;;4.70;2.78;;;-1.00;99.90;;;;;;5043824;28;20392;-75
2021/03/21 05:07:40;;;;;;;4.43;2.78;;;-1.00;99.90;;;;;;5044313;28;20101;-77
2021/03/21 05:10:35;;;;;;;4.30;2.90;;;-0.90;99.90;;;;;;5031893;28;20424;-76
2021/03/21 05:13:17;;;;;;;4.28;2.55;;;-0.90;99.90;;;;;;5043863;28;20074;-77
2021/03/21 05:16:18;;;;;;;6.13;3.38;;;-0.90;99.90;;;;;;5034173;28;20164;-75
2021/03/21 05:18:58;;;;;;;5.43;3.92;;;-0.90;99.90;;;;;;5015843;28;20081;-76
2021/03/21 05:21:39;;;;;;;3.85;2.72;;;-1.00;99.90;;;;;;5038473;28;20400;-77
2021/03/21 05:24:19;;;;;;;5.53;3.47;;;-0.90;99.90;;;;;;5036391;28;20085;-77
2021/03/21 05:26:51;;;;;;;5.90;3.85;;;-0.90;99.90;;;;;;5038641;28;20136;-76
2021/03/21 05:29:48;;;;;;;5.75;3.70;;;-0.80;99.90;;;;;;5042411;28;20074;-77
2021/03/21 05:32:17;;;;;;;5.57;3.50;;;-0.80;99.90;;;;;;5050233;28;20074;-76
2021/03/21 05:34:43;;;;;;;6.82;3.47;;;-0.90;99.90;;;;;;5042346;28;20162;-77
2021/03/21 05:37:36;;;;;;;11.18;5.55;;;-1.00;99.90;;;;;;5036790;28;20097;-77
2021/03/21 05:40:04;;;;;;;8.38;4.72;;;-1.10;99.90;;;;;;5027795;28;20066;-76
2021/03/21 05:42:36;;;;;;;5.03;3.47;;;-1.00;99.90;;;;;;5032859;28;20082;-76
2021/03/21 05:45:35;;;;;;;6.90;4.43;;;-1.00;99.90;;;;;;5055691;28;20537;-77
2021/03/21 05:48:19;;;;;;;6.10;4.00;;;-0.90;99.90;;;;;;5042148;28;20135;-78
2021/03/21 05:50:59;;;;;;;5.10;3.40;;;-1.00;99.90;;;;;;5037334;28;20155;-76
2021/03/21 05:53:25;;;;;;;10.10;3.80;;;-1.00;99.90;;;;;;5030925;28;20331;-76
2021/03/21 05:56:11;;;;;;;11.38;4.63;;;-1.00;99.90;;;;;;5041756;28;20078;-76
2021/03/21 05:58:48;;;;;;;9.43;3.40;;;-0.90;99.90;;;;;;5043424;28;20091;-76
2021/03/21 06:01:20;;;;;;;6.35;3.47;;;-0.90;99.90;;;;;;5034930;28;20448;-76
2021/03/21 06:04:16;;;;;;;6.88;3.47;;;-0.90;99.90;;;;;;5041216;28;20069;-76
2021/03/21 06:06:53;;;;;;;6.72;3.33;;;-0.90;99.90;;;;;;5033630;28;20107;-77
2021/03/21 06:10:04;;;;;;;7.00;3.78;;;-0.80;99.90;;;;;;5047200;28;20080;-76
2021/03/21 06:12:59;;;;;;;6.95;3.63;;;-0.80;99.90;;;;;;5001648;28;20081;-76
2021/03/21 06:16:02;;;;;;;5.50;3.25;;;-0.80;99.90;;;;;;5036524;28;20073;-75
2021/03/21 06:18:37;;;;;;;8.13;3.60;;;-0.80;99.90;;;;;;5045683;28;20811;-75
2021/03/21 06:21:10;;;;;;;6.15;3.65;;;-0.80;99.90;;;;;;5046009;28;20195;-78
2021/03/21 06:23:51;;;;;;;6.20;3.70;;;-0.80;99.90;;;;;;5042646;28;20074;-76
2021/03/21 06:26:43;;;;;;;5.93;3.65;;;-0.80;99.90;;;;;;5037019;28;20198;-78
2021/03/21 06:30:06;;;;;;;3.92;2.95;;;-0.90;99.90;;;;;;5039129;28;20080;-76
2021/03/21 06:32:53;;;;;;;4.68;3.03;;;-0.70;99.90;;;;;;5029769;28;20169;-77
2021/03/21 06:35:41;;;;;;;5.18;2.75;;;-0.80;99.90;;;;;;5043100;28;20086;-77
2021/03/21 06:38:12;;;;;;;5.63;3.35;;;-0.70;99.90;;;;;;5033789;28;20080;-76
2021/03/21 06:40:51;;;;;;;5.22;3.33;;;-0.80;99.90;;;;;;5041919;28;20069;-76
2021/03/21 06:43:17;;;;;;;6.18;3.25;;;-0.70;99.90;;;;;;5043267;28;20595;-76
2021/03/21 06:46:14;;;;;;;7.25;3.67;;;-0.70;99.90;;;;;;5042749;28;20189;-76
2021/03/21 06:49:17;;;;;;;7.32;4.25;;;-0.70;99.90;;;;;;5027230;28;20180;-76
2021/03/21 06:51:56;;;;;;;4.97;3.53;;;-0.70;99.90;;;;;;5058033;28;20523;-76
2021/03/21 06:54:45;;;;;;;5.40;2.95;;;-0.60;99.90;;;;;;5030695;28;20080;-76
2021/03/21 06:57:32;;;;;;;5.55;3.22;;;-0.70;99.90;;;;;;5039517;28;20101;-76
2021/03/21 07:00:19;;;;;;;5.00;2.90;;;-0.70;99.90;;;;;;5058647;28;20073;-76
2021/03/21 07:03:22;;;;;;;5.25;3.05;;;-0.60;99.90;;;;;;5044335;28;20104;-76
2021/03/21 07:06:07;;;;;;;4.72;2.90;;;-0.60;99.90;;;;;;5033960;28;20191;-75
2021/03/21 07:08:39;;;;;;;7.50;3.97;;;-0.50;99.90;;;;;;5045868;28;20112;-78
2021/03/21 07:11:16;;;;;;;5.05;3.40;;;-0.40;99.90;;;;;;5039648;28;20077;-76
2021/03/21 07:14:18;;;;;;;4.55;3.45;;;-0.50;99.90;;;;;;5038777;28;20234;-76
2021/03/21 07:17:01;;;;;;;7.18;3.47;;;-0.50;99.90;;;;;;5049307;28;20089;-77
2021/03/21 07:19:52;;;;;;;7.63;3.65;;;-0.40;99.90;;;;;;5044175;28;20121;-77
2021/03/21 07:22:44;;;;;;;6.22;3.50;;;-0.40;99.90;;;;;;5043057;28;20113;-77
2021/03/21 07:25:18;;;;;;;4.50;2.88;;;-0.40;99.90;;;;;;5030350;28;20090;-76
2021/03/21 07:28:05;;;;;;;4.20;2.92;;;-0.30;99.90;;;;;;5041238;28;20089;-76
2021/03/21 07:31:13;;;;;;;5.57;3.55;;;-0.30;99.90;;;;;;5037963;28;20083;-76
2021/03/21 07:33:54;;;;;;;3.50;2.28;;;-0.20;99.90;;;;;;5016327;28;20086;-75
2021/03/21 07:36:31;;;;;;;4.30;2.72;;;-0.20;99.90;;;;;;5032040;28;20778;-75
2021/03/21 07:39:15;;;;;;;5.00;3.10;;;-0.20;99.90;;;;;;5029955;28;20457;-77
2021/03/21 07:41:49;;;;;;;7.15;3.55;;;-0.20;99.90;;;;;;5045025;28;20175;-77
2021/03/21 07:44:27;;;;;;;4.20;3.13;;;-0.10;99.90;;;;;;5044616;28;20077;-76
2021/03/21 07:47:11;;;;;;;6.38;3.00;;;-0.10;99.90;;;;;;5040207;28;20176;-76
2021/03/21 07:49:57;;;;;;;5.23;2.87;;;-0.10;99.90;;;;;;5036734;28;20146;-76
2021/03/21 07:52:29;;;;;;;4.88;3.10;;;0.00;99.90;;;;;;5031215;28;20327;-76
2021/03/21 07:55:00;;;;;;;5.72;2.65;;;0.00;99.90;;;;;;5035117;28;20738;-77
2021/03/21 07:57:53;;;;;;;6.32;3.13;;;0.00;99.90;;;;;;5040224;28;20696;-77
2021/03/21 08:00:20;;;;;;;5.75;3.08;;;0.00;99.90;;;;;;5035972;28;20139;-76
2021/03/21 08:02:49;;;;;;;5.65;3.50;;;0.10;99.90;;;;;;5039761;28;20142;-77
2021/03/21 08:05:19;;;;;;;7.28;3.40;;;0.10;99.90;;;;;;5066169;28;20084;-80
2021/03/21 08:07:48;;;;;;;5.57;3.50;;;0.10;99.90;;;;;;5041874;28;20090;-78
2021/03/21 08:10:31;;;;;;;6.00;3.63;;;0.20;99.90;;;;;;5057205;28;20131;-77
2021/03/21 08:13:02;;;;;;;5.82;3.72;;;0.20;99.90;;;;;;5048188;28;20441;-78
2021/03/21 08:15:34;;;;;;;5.18;3.35;;;0.10;99.90;;;;;;5042132;28;20136;-77
2021/03/21 08:18:04;;;;;;;5.45;2.40;;;0.20;99.90;;;;;;5044621;28;20100;-79
2021/03/21 08:20:33;;;;;;;4.93;2.85;;;0.20;99.90;;;;;;5045959;28;20069;-78
2021/03/21 08:23:20;;;;;;;5.60;2.53;;;0.20;99.90;;;;;;5032610;28;20074;-77
2021/03/21 08:25:46;;;;;;;7.03;2.60;;;0.20;99.90;;;;;;5055067;28;20103;-77
2021/03/21 08:28:17;;;;;;;3.58;2.78;;;0.20;99.90;;;;;;5045246;28;20073;-79
2021/03/21 08:30:59;;;;;;;5.13;2.72;;;0.20;99.90;;;;;;5031197;28;20109;-77
2021/03/21 08:33:31;;;;;;;6.00;3.15;;;0.20;99.90;;;;;;5041578;28;20507;-78
2021/03/21 08:36:21;;;;;;;5.40;2.55;;;0.20;99.90;;;;;;5032743;28;20822;-78
2021/03/21 08:39:04;;;;;;;5.30;2.85;;;0.20;99.90;;;;;;5044210;28;20184;-78
2021/03/21 08:41:43;;;;;;;5.82;2.65;;;0.20;99.90;;;;;;5030156;28;20491;-77
2021/03/21 08:44:42;;;;;;;4.60;2.63;;;0.20;99.90;;;;;;5051561;28;20078;-78
2021/03/21 08:47:24;;;;;;;6.90;3.25;;;0.30;99.90;;;;;;5046309;28;20101;-77
2021/03/21 08:49:55;;;;;;;5.40;3.05;;;0.30;99.90;;;;;;5029718;28;20074;-78
2021/03/21 08:52:34;;;;;;;6.28;3.97;;;0.30;99.90;;;;;;5040383;28;20592;-78
2021/03/21 08:55:01;;;;;;;5.05;3.28;;;0.30;99.90;;;;;;5055439;28;20076;-78
2021/03/21 08:57:36;;;;;;;5.13;2.38;;;0.30;99.90;;;;;;5050971;28;20093;-79
2021/03/21 09:00:23;;;;;;;5.35;3.15;;;0.30;99.90;;;;;;5035639;28;20448;-77
2021/03/21 09:02:50;;;;;;;4.05;3.17;;;0.30;99.90;;;;;;5065184;28;20228;-78
2021/03/21 09:05:18;;;;;;;5.95;2.78;;;0.30;99.90;;;;;;5044942;28;20188;-78
2021/03/21 09:08:02;;;;;;;7.82;2.85;;;0.40;99.90;;;;;;5043428;28;20512;-77
2021/03/21 09:10:33;;;;;;;4.15;2.60;;;0.30;99.90;;;;;;5035146;28;20623;-77
2021/03/21 09:13:02;;;;;;;5.35;3.25;;;0.40;99.90;;;;;;5036096;28;20097;-78
2021/03/21 09:15:42;;;;;;;5.63;2.53;;;0.40;99.90;;;;;;5038224;28;20074;-77
2021/03/21 09:18:11;;;;;;;9.05;3.80;;;0.40;99.90;;;;;;5028828;28;20078;-78
2021/03/21 09:20:40;;;;;;;7.22;4.05;;;0.40;99.90;;;;;;5058171;28;20073;-77
2021/03/21 09:23:43;;;;;;;6.20;2.78;;;0.40;99.90;;;;;;5036250;28;20200;-78
2021/03/21 09:26:11;;;;;;;9.25;3.92;;;0.40;99.90;;;;;;5038955;28;20092;-78
2021/03/21 09:28:40;;;;;;;8.75;4.75;;;0.30;99.90;;;;;;5046721;28;20522;-78
2021/03/21 09:31:12;;;;;;;8.48;4.28;;;0.40;99.90;;;;;;5044610;28;20085;-79
2021/03/21 09:33:46;;;;;;;5.57;3.58;;;0.40;99.90;;;;;;5051013;28;20180;-77
2021/03/21 09:36:18;;;;;;;5.63;2.97;;;0.50;99.90;;;;;;5029892;28;20111;-78
2021/03/21 09:38:51;;;;;;;4.80;2.70;;;0.40;99.90;;;;;;5038514;28;20074;-77
2021/03/21 09:41:18;;;;;;;5.82;2.90;;;0.50;99.90;;;;;;5029473;28;20560;-77
2021/03/21 09:43:48;;;;;;;6.22;2.80;;;0.50;99.90;;;;;;5030398;28;20161;-78
2021/03/21 09:46:23;;;;;;;4.30;2.42;;;0.50;99.90;;;;;;5028507;28;20143;-78
2021/03/21 09:49:17;;;;;;;6.95;2.63;;;0.50;99.90;;;;;;5047120;28;20077;-79
2021/03/21 09:51:58;;;;;;;7.60;3.47;;;0.50;99.90;;;;;;5033562;28;20524;-78
2021/03/21 09:54:56;;;;;;;5.90;3.53;;;0.50;99.90;;;;;;5032164;28;20086;-77
2021/03/21 09:57:44;;;;;;;6.07;2.78;;;0.70;99.90;;;;;;5028376;28;20107;-78
2021/03/21 10:00:23;;;;;;;4.07;2.80;;;0.60;99.90;;;;;;5044230;28;20131;-77
2021/03/21 10:02:55;;;;;;;4.45;2.67;;;0.70;99.90;;;;;;5057073;28;20081;-79
2021/03/21 10:05:31;;;;;;;4.18;2.42;;;0.70;99.90;;;;;;5039352;28;20069;-78
2021/03/21 10:08:10;;;;;;;6.70;3.30;;;0.70;99.90;;;;;;5038845;28;20572;-77
2021/03/21 10:10:37;;;;;;;3.85;2.65;;;0.80;99.90;;;;;;5051995;28;20533;-77
2021/03/21 10:13:04;;;;;;;7.18;3.75;;;0.80;99.90;;;;;;5033555;28;20081;-78
2021/03/21 10:15:30;;;;;;;6.10;3.47;;;0.80;99.90;;;;;;5034530;28;20080;-78
2021/03/21 10:18:04;;;;;;;4.72;3.05;;;0.70;99.90;;;;;;5027736;28;20644;-77
2021/03/21 10:20:52;;;;;;;5.53;3.35;;;0.80;99.90;;;;;;5029986;28;20176;-76
2021/03/21 10:23:17;;;;;;;7.38;3.08;;;0.90;99.90;;;;;;5046096;28;20541;-78
2021/03/21 10:25:43;;;;;;;4.00;2.80;;;0.90;99.90;;;;;;5038975;28;20089;-78
2021/03/21 10:28:33;;;;;;;4.47;2.70;;;0.90;99.90;;;;;;5036708;28;20545;-77
2021/03/21 10:31:21;;;;;;;5.15;2.83;;;0.80;99.90;;;;;;5041613;28;20077;-77
2021/03/21 10:33:48;;;;;;;9.02;3.20;;;0.80;99.90;;;;;;5036115;28;20072;-77
2021/03/21 10:36:40;;;;;;;6.13;2.90;;;0.80;99.90;;;;;;5037978;28;20827;-78
2021/03/21 10:39:23;;;;;;;7.07;4.78;;;0.80;99.90;;;;;;5054300;28;20086;-79
2021/03/21 10:41:53;;;;;;;4.82;3.13;;;0.80;99.90;;;;;;5043277;28;20116;-78
2021/03/21 10:44:21;;;;;;;6.10;2.97;;;0.80;99.90;;;;;;5047315;28;20192;-80
2021/03/21 10:46:53;;;;;;;4.63;3.63;;;0.80;99.90;;;;;;5043296;28;20102;-80
2021/03/21 10:49:56;;;;;;;5.28;3.58;;;0.90;99.90;;;;;;5044266;28;20165;-81
2021/03/21 10:52:32;;;;;;;6.18;3.17;;;0.80;99.90;;;;;;5054207;28;20069;-79
2021/03/21 10:55:13;;;;;;;4.63;3.15;;;0.80;99.90;;;;;;5040087;28;20100;-80
2021/03/21 10:57:45;;;;;;;6.75;3.08;;;0.80;99.90;;;;;;5062441;28;20092;-80
2021/03/21 11:00:20;;;;;;;4.95;3.38;;;0.80;99.90;;;;;;5059844;28;20514;-82
2021/03/21 11:03:12;;;;;;;6.45;4.10;;;0.90;99.90;;;;;;5037370;28;20135;-81
2021/03/21 11:05:44;;;;;;;5.95;3.83;;;1.00;99.90;;;;;;5041419;28;20089;-82
2021/03/21 11:08:13;;;;;;;6.10;3.70;;;1.00;99.90;;;;;;5059846;28;20140;-82
2021/03/21 11:10:51;;;;;;;7.22;4.10;;;1.00;99.90;;;;;;5061989;28;20100;-82
2021/03/21 11:13:29;;;;;;;5.22;3.17;;;1.10;99.90;;;;;;5059396;28;20176;-82
2021/03/21 11:15:55;;;;;;;8.30;5.10;;;1.10;99.90;;;;;;5066613;28;20084;-83
2021/03/21 11:18:28;;;;;;;8.25;4.15;;;1.20;99.90;;;;;;5063814;28;20596;-82
2021/03/21 11:21:23;;;;;;;8.75;3.83;;;1.30;99.90;;;;;;5039239;28;20108;-83
2021/03/21 11:24:03;;;;;;;7.95;4.28;;;1.30;99.90;;;;;;5040868;28;20183;-76
2021/03/21 11:26:34;;;;;;;6.13;3.80;;;1.30;99.90;;;;;;5044912;28;20117;-77
2021/03/21 11:29:07;;;;;;;8.63;3.95;;;1.30;99.90;;;;;;5043002;28;20089;-79
2021/03/21 11:31:42;;;;;;;5.65;3.80;;;1.30;99.90;;;;;;5044441;28;20077;-77
2021/03/21 11:34:18;;;;;;;5.05;3.50;;;1.50;99.90;;;;;;5041605;28;20095;-78
2021/03/21 11:36:45;;;;;;;6.07;3.17;;;1.60;99.90;;;;;;5048951;28;20085;-78
2021/03/21 11:39:42;;;;;;;4.28;2.72;;;1.60;99.90;;;;;;5046374;28;20143;-76
2021/03/21 11:42:29;;;;;;;6.40;3.28;;;1.60;99.90;;;;;;5051092;28;20066;-77
2021/03/21 11:45:17;;;;;;;5.80;3.28;;;1.60;99.90;;;;;;5045181;28;20175;-79
2021/03/21 11:47:45;;;;;;;5.75;3.20;;;1.60;99.90;;;;;;5041159;28;20127;-80
2021/03/21 11:50:33;;;;;;;5.13;3.30;;;1.60;99.90;;;;;;5060312;28;20074;-81
2021/03/21 11:53:01;;;;;;;8.18;3.88;;;1.60;99.90;;;;;;5031363;28;20109;-77
2021/03/21 11:55:31;;;;;;;5.03;3.17;;;1.70;99.90;;;;;;5042304;28;20614;-78
2021/03/21 11:58:00;;;;;;;5.57;3.20;;;1.60;99.90;;;;;;5043554;28;20129;-79
2021/03/21 12:00:32;;;;;;;7.57;3.70;;;1.50;99.90;;;;;;5042301;28;20070;-77
2021/03/21 12:02:57;;;;;;;7.85;4.00;;;1.50;99.90;;;;;;5040172;28;20076;-77
2021/03/21 12:05:27;;;;;;;7.75;3.67;;;1.50;99.90;;;;;;5037736;28;20479;-79
2021/03/21 12:08:24;;;;;;;8.02;3.70;;;1.50;99.90;;;;;;5037647;28;20100;-78
2021/03/21 12:10:52;;;;;;;5.07;3.30;;;1.50;99.90;;;;;;5037071;28;20086;-78
2021/03/21 12:13:35;;;;;;;7.32;4.03;;;1.50;99.90;;;;;;5043091;28;20082;-78
2021/03/21 12:16:04;;;;;;;5.43;4.00;;;1.60;99.90;;;;;;5035248;28;20521;-79
2021/03/21 12:18:33;;;;;;;8.90;4.32;;;1.60;99.90;;;;;;5046275;28;20159;-78
2021/03/21 12:21:13;;;;;;;6.20;3.38;;;1.50;99.90;;;;;;5056416;28;20080;-79
2021/03/21 12:24:01;;;;;;;8.05;3.67;;;1.50;99.90;;;;;;5030863;28;20093;-79
2021/03/21 12:26:32;;;;;;;5.75;3.53;;;1.50;99.90;;;;;;5045749;28;20220;-77
2021/03/21 12:29:26;;;;;;;5.80;4.22;;;1.60;99.90;;;;;;5037517;28;20113;-78
2021/03/21 12:31:54;;;;;;;8.18;4.97;;;1.60;99.90;;;;;;5041899;28;20081;-79
2021/03/21 12:34:22;;;;;;;8.00;5.00;;;1.60;99.90;;;;;;5052876;28;20084;-77
2021/03/21 12:37:13;;;;;;;6.72;3.92;;;1.60;99.90;;;;;;5035265;28;20085;-77
2021/03/21 12:39:42;;;;;;;8.75;4.53;;;1.50;99.90;;;;;;5039601;28;20591;-78
2021/03/21 12:42:26;;;;;;;8.27;4.65;;;1.60;99.90;;;;;;5036023;28;20219;-77
2021/03/21 12:45:12;;;;;;;8.73;4.50;;;1.50;99.90;;;;;;5032863;28;20085;-78
2021/03/21 12:47:56;;;;;;;12.00;4.80;;;1.60;99.90;;;;;;5043321;28;20106;-79
2021/03/21 12:50:34;;;;;;;14.05;6.47;;;1.60;99.90;;;;;;5058908;28;20138;-77
2021/03/21 12:53:00;;;;;;;7.63;4.50;;;1.50;99.90;;;;;;5041037;28;20119;-76
2021/03/21 12:55:25;;;;;;;9.88;4.28;;;1.50;99.90;;;;;;5036938;28;20085;-78
2021/03/21 12:57:55;;;;;;;6.97;4.28;;;1.50;99.90;;;;;;5033110;28;20660;-76
2021/03/21 13:00:24;;;;;;;8.50;4.45;;;1.40;99.90;;;;;;5040317;28;20163;-76
2021/03/21 13:02:53;;;;;;;8.63;4.75;;;1.40;99.90;;;;;;5031452;28;20090;-78
2021/03/21 13:05:28;;;;;;;12.20;5.32;;;1.40;99.90;;;;;;5029986;28;20165;-76
2021/03/21 13:07:55;;;;;;;10.98;5.18;;;1.30;99.90;;;;;;5037319;28;20101;-77
2021/03/21 13:10:22;;;;;;;8.30;4.90;;;1.30;99.90;;;;;;5046693;28;20789;-77
2021/03/21 13:12:48;;;;;;;10.50;4.57;;;1.40;99.90;;;;;;5041127;28;20268;-77
2021/03/21 13:15:14;;;;;;;10.63;5.95;;;1.30;99.90;;;;;;5048604;28;20593;-76
2021/03/21 13:17:40;;;;;;;11.23;6.22;;;1.30;99.90;;;;;;5028933;28;20117;-75
2021/03/21 13:20:08;;;;;;;9.27;5.78;;;1.30;99.90;;;;;;5032602;28;20848;-77
2021/03/21 13:22:34;;;;;;;8.23;4.97;;;1.30;99.90;;;;;;5029227;28;20078;-76
2021/03/21 13:24:59;;;;;;;9.13;4.93;;;1.30;99.90;;;;;;5047400;28;20175;-78
2021/03/21 13:27:25;;;;;;;9.75;5.15;;;1.30;99.90;;;;;;5042513;28;20101;-77
2021/03/21 13:29:52;;;;;;;8.10;4.53;;;1.30;99.90;;;;;;5050349;28;20533;-78
2021/03/21 13:32:18;;;;;;;11.60;6.60;;;1.30;99.90;;;;;;5043497;28;20135;-77
2021/03/21 13:34:44;;;;;;;9.10;5.30;;;1.40;99.90;;;;;;5037924;28;20165;-78
2021/03/21 13:37:10;;;;;;;14.02;6.13;;;1.40;99.90;;;;;;5034539;28;20097;-77